Time;durP1;ratioP1;P1;durP2;ratioP2;P2;SDS_P1;SDS_P2;PMS_P1;PMS_P2;Temp;Humidity;BMP_temperature;BMP_pressure;BME280_temperature;BME280_humidity;BME280_pressure;Samples;Min_cycle;Max_cycle;Signal;HPM_P1;HPM_P2
2023/04/21 00:00:54;;;;;;;;;34.50;31.75;;;;;8.19;100.00;101031.28;5005046;28;45374;-72
2023/04/21 00:03:22;;;;;;;;;25.25;24.75;;;;;8.13;100.00;101018.25;5020473;28;45268;-72
2023/04/21 00:05:47;;;;;;;;;30.75;28.00;;;;;8.26;100.00;101022.63;5004656;28;45318;-73
2023/04/21 00:08:13;;;;;;;;;38.00;29.75;;;;;8.26;100.00;101028.91;5003373;28;45232;-72
2023/04/21 00:10:39;;;;;;;;;29.75;26.50;;;;;8.19;100.00;101011.47;5004965;28;45402;-72
2023/04/21 00:13:04;;;;;;;;;28.00;26.00;;;;;8.20;100.00;101022.16;5003836;28;45380;-73
2023/04/21 00:15:29;;;;;;;;;28.75;25.00;;;;;8.05;100.00;101012.59;5003125;28;47204;-72
2023/04/21 00:17:56;;;;;;;;;35.25;30.50;;;;;7.96;100.00;101007.09;5003112;28;45335;-72
2023/04/21 00:20:22;;;;;;;;;36.25;31.25;;;;;8.06;100.00;101011.63;5019837;28;45548;-72
2023/04/21 00:22:49;;;;;;;;;34.25;25.50;;;;;8.05;100.00;101019.84;5004809;28;45370;-71
2023/04/21 00:25:14;;;;;;;;;32.25;25.25;;;;;8.06;100.00;101008.06;5004313;28;46284;-72
2023/04/21 00:27:40;;;;;;;;;37.00;32.75;;;;;7.92;100.00;100992.09;5004658;28;45398;-72
2023/04/21 00:30:06;;;;;;;;;25.00;24.50;;;;;7.92;100.00;100998.38;5004879;28;45242;-72
2023/04/21 00:32:31;;;;;;;;;38.25;24.00;;;;;7.97;100.00;100989.84;5003994;28;45289;-72
2023/04/21 00:34:56;;;;;;;;;26.50;25.25;;;;;7.89;100.00;101000.47;5019436;28;47358;-72
2023/04/21 00:37:22;;;;;;;;;28.00;26.25;;;;;7.78;100.00;101001.34;5019600;28;45368;-72
2023/04/21 00:39:47;;;;;;;;;37.75;33.25;;;;;7.70;100.00;100985.72;5004467;28;45263;-72
2023/04/21 00:42:15;;;;;;;;;34.50;28.00;;;;;7.66;100.00;100991.53;5004839;28;45358;-72
2023/04/21 00:44:40;;;;;;;;;36.00;27.25;;;;;7.62;100.00;100987.31;5004262;28;46820;-72
2023/04/21 00:47:05;;;;;;;;;34.75;31.50;;;;;7.66;100.00;100981.56;5004536;28;45447;-72
2023/04/21 00:49:31;;;;;;;;;32.75;31.50;;;;;7.70;100.00;100974.03;5019238;28;48569;-71
2023/04/21 00:51:57;;;;;;;;;35.75;32.25;;;;;7.75;100.00;100978.09;5019735;28;45277;-72
2023/04/21 00:54:24;;;;;;;;;38.75;28.25;;;;;7.76;100.00;100982.50;5003801;28;45312;-72
2023/04/21 00:56:50;;;;;;;;;31.50;27.75;;;;;7.72;100.00;100975.66;5006337;28;45699;-72
2023/04/21 00:59:15;;;;;;;;;32.50;29.25;;;;;7.77;100.00;100973.44;5004211;28;45486;-72
2023/04/21 01:01:40;;;;;;;;;36.25;32.00;;;;;7.69;100.00;100951.56;5004583;28;45216;-72
2023/04/21 01:04:06;;;;;;;;;32.75;25.50;;;;;7.80;100.00;100964.22;5002224;28;46658;-72
2023/04/21 01:06:33;;;;;;;;;28.25;26.00;;;;;7.80;100.00;100965.06;5018934;28;45331;-72
2023/04/21 01:08:58;;;;;;;;;33.25;28.25;;;;;7.88;100.00;100966.28;5003886;28;45164;-72
2023/04/21 01:11:23;;;;;;;;;32.00;28.00;;;;;8.02;100.00;100966.00;5004167;28;45421;-72
2023/04/21 01:13:53;;;;;;;;;33.75;24.75;;;;;8.08;100.00;100957.38;5003583;28;45350;-72
2023/04/21 01:16:20;;;;;;;;;28.25;27.75;;;;;8.08;100.00;100957.38;5004032;28;45415;-72
2023/04/21 01:18:45;;;;;;;;;28.50;24.00;;;;;8.21;100.00;100958.06;5003533;28;45166;-72
2023/04/21 01:21:11;;;;;;;;;30.75;28.00;;;;;8.31;100.00;100959.06;5004133;28;45154;-72
2023/04/21 01:23:38;;;;;;;;;31.00;26.75;;;;;8.34;100.00;100947.97;5002098;28;46887;-72
2023/04/21 01:26:03;;;;;;;;;31.75;27.75;;;;;8.39;100.00;100953.88;5001784;28;45306;-72
2023/04/21 01:28:28;;;;;;;;;29.75;28.25;;;;;8.47;100.00;100951.38;5003735;28;45307;-72
2023/04/21 01:30:54;;;;;;;;;33.25;26.25;;;;;8.53;100.00;100931.91;5002766;28;45297;-72
2023/04/21 01:33:20;;;;;;;;;29.00;28.50;;;;;8.62;100.00;100932.94;5003419;28;45371;-72
2023/04/21 01:35:46;;;;;;;;;34.50;27.50;;;;;8.63;100.00;100937.34;5003462;28;45384;-72
2023/04/21 01:38:12;;;;;;;;;29.00;25.50;;;;;8.66;100.00;100936.25;5003593;28;45421;-72
2023/04/21 01:40:40;;;;;;;;;34.50;30.25;;;;;8.70;100.00;100933.13;5003750;28;45284;-72
2023/04/21 01:43:06;;;;;;;;;29.00;25.00;;;;;8.56;100.00;100933.47;5001834;28;46966;-72
2023/04/21 01:45:31;;;;;;;;;28.75;26.75;;;;;8.70;100.00;100924.16;5003193;28;45220;-72
2023/04/21 01:47:57;;;;;;;;;25.50;24.00;;;;;8.73;100.00;100932.88;5003563;28;45222;-72
2023/04/21 01:50:22;;;;;;;;;28.75;23.50;;;;;8.76;100.00;100926.34;5003828;28;45409;-73
2023/04/21 01:52:48;;;;;;;;;31.75;25.25;;;;;8.57;100.00;100916.22;5002916;28;46175;-71
2023/04/21 01:55:13;;;;;;;;;36.00;28.00;;;;;8.63;100.00;100923.81;5002851;28;45209;-71
2023/04/21 01:57:39;;;;;;;;;25.75;25.75;;;;;8.62;100.00;100929.41;5003177;28;45328;-71
2023/04/21 02:00:05;;;;;;;;;34.75;28.75;;;;;8.59;100.00;100915.13;5003671;28;45587;-72
2023/04/21 02:02:31;;;;;;;;;32.00;27.50;;;;;8.49;100.00;100906.03;5001856;28;48107;-71
2023/04/21 02:04:56;;;;;;;;;27.50;24.75;;;;;8.55;100.00;100913.63;5018051;28;45295;-71
2023/04/21 02:07:21;;;;;;;;;28.50;27.50;;;;;8.59;100.00;100904.28;5003167;28;45886;-71
2023/04/21 02:09:47;;;;;;;;;28.25;28.00;;;;;8.59;100.00;100908.84;5001772;28;45646;-71
2023/04/21 02:12:12;;;;;;;;;27.50;26.75;;;;;8.61;100.00;100906.00;5003346;28;47467;-70
2023/04/21 02:14:37;;;;;;;;;29.25;25.75;;;;;8.56;100.00;100909.09;5034853;28;45512;-71
2023/04/21 02:17:03;;;;;;;;;32.25;23.75;;;;;8.77;100.00;100907.22;5001747;28;45398;-72
2023/04/21 02:19:29;;;;;;;;;35.50;28.50;;;;;8.92;100.00;100905.91;5003427;28;45244;-72
2023/04/21 02:21:55;;;;;;;;;27.75;24.25;;;;;8.86;100.00;100901.03;5002999;28;46409;-72
2023/04/21 02:24:20;;;;;;;;;33.00;27.75;;;;;8.93;100.00;100890.50;5002618;28;45405;-72
2023/04/21 02:26:46;;;;;;;;;32.50;27.75;;;;;8.92;100.00;100891.50;5003165;28;45318;-72
2023/04/21 02:29:11;;;;;;;;;32.25;30.50;;;;;8.82;100.00;100904.16;5003274;28;45232;-72
2023/04/21 02:31:36;;;;;;;;;26.75;24.75;;;;;8.78;100.00;100899.97;5004072;28;45390;-72
2023/04/21 02:34:02;;;;;;;;;29.25;23.25;;;;;8.84;100.00;100894.88;5004821;28;45323;-72
2023/04/21 02:36:27;;;;;;;;;37.75;31.50;;;;;8.93;100.00;100895.91;5006423;28;45468;-73
2023/04/21 02:38:52;;;;;;;;;33.00;28.50;;;;;8.99;100.00;100898.94;5021890;28;45312;-72
2023/04/21 02:41:18;;;;;;;;;29.75;25.00;;;;;9.05;100.00;100888.59;5005935;28;50860;-72
2023/04/21 02:43:43;;;;;;;;;28.25;27.00;;;;;9.13;100.00;100895.03;5005266;28;45321;-72
2023/04/21 02:46:08;;;;;;;;;45.00;36.00;;;;;9.07;100.00;100873.88;5021294;28;45395;-72
2023/04/21 02:48:34;;;;;;;;;26.75;25.00;;;;;8.96;100.00;100874.00;5006645;28;45269;-72
2023/04/21 02:51:00;;;;;;;;;27.00;27.00;;;;;9.17;100.00;100891.06;5021229;28;45466;-72
2023/04/21 02:53:25;;;;;;;;;31.50;27.25;;;;;9.28;100.00;100903.66;5020867;28;45730;-71
2023/04/21 02:55:51;;;;;;;;;34.75;27.75;;;;;9.33;100.00;100896.84;5005838;28;45342;-72
2023/04/21 02:58:17;;;;;;;;;31.25;28.75;;;;;9.40;100.00;100899.00;5006315;28;45280;-71
2023/04/21 03:00:42;;;;;;;;;27.00;25.25;;;;;9.42;100.00;100891.59;5004654;28;47177;-71
2023/04/21 03:03:08;;;;;;;;;27.25;25.00;;;;;9.44;100.00;100895.88;5004804;28;45391;-71
2023/04/21 03:05:34;;;;;;;;;27.50;25.50;;;;;9.41;100.00;100888.03;5006016;28;45336;-72
2023/04/21 03:08:00;;;;;;;;;32.75;26.00;;;;;9.42;100.00;100880.75;5021335;28;45170;-72
2023/04/21 03:10:25;;;;;;;;;27.75;26.25;;;;;9.41;100.00;100877.19;5005441;28;45498;-72
2023/04/21 03:12:50;;;;;;;;;33.75;31.00;;;;;9.36;100.00;100879.41;5005743;28;45191;-71
2023/04/21 03:15:16;;;;;;;;;38.50;32.00;;;;;9.38;100.00;100874.72;5005989;28;45204;-70
2023/04/21 03:17:41;;;;;;;;;32.75;30.75;;;;;9.20;100.00;100876.38;5004657;28;45509;-70
2023/04/21 03:20:08;;;;;;;;;33.25;31.00;;;;;9.01;100.00;100870.84;5020765;28;48446;-71
2023/04/21 03:22:37;;;;;;;;;41.25;36.00;;;;;8.96;100.00;100874.00;5020446;28;45126;-71
2023/04/21 03:25:03;;;;;;;;;36.25;29.00;;;;;9.18;100.00;100872.94;5005558;28;45427;-71
2023/04/21 03:27:29;;;;;;;;;33.00;32.00;;;;;9.33;100.00;100877.00;5005851;28;45449;-71
2023/04/21 03:29:55;;;;;;;;;34.25;28.00;;;;;9.32;100.00;100873.44;5020494;28;47500;-71
2023/04/21 03:32:20;;;;;;;;;38.25;28.75;;;;;9.16;100.00;100869.50;5003874;28;45222;-71
2023/04/21 03:34:46;;;;;;;;;35.75;32.00;;;;;9.13;100.00;100865.19;5004044;28;45303;-71
2023/04/21 03:37:11;;;;;;;;;37.00;31.50;;;;;9.07;100.00;100863.03;5005471;28;45393;-71
2023/04/21 03:39:36;;;;;;;;;38.50;32.25;;;;;9.11;100.00;100859.09;5005087;28;45277;-72
2023/04/21 03:42:03;;;;;;;;;49.75;38.50;;;;;9.09;100.00;100855.63;5003615;28;45178;-70
2023/04/21 03:44:29;;;;;;;;;33.50;30.50;;;;;9.09;100.00;100854.78;5003731;28;45494;-71
2023/04/21 03:46:54;;;;;;;;;38.75;35.00;;;;;9.09;100.00;100855.63;5004056;28;45427;-71
2023/04/21 03:49:20;;;;;;;;;32.00;31.50;;;;;8.92;100.00;100830.03;5020325;28;47190;-71
2023/04/21 03:51:45;;;;;;;;;40.00;34.75;;;;;9.00;100.00;100853.75;5003315;28;45770;-72
2023/04/21 03:54:11;;;;;;;;;38.25;32.75;;;;;9.13;100.00;100842.69;5003314;28;45491;-71
2023/04/21 03:56:36;;;;;;;;;38.75;35.25;;;;;9.20;100.00;100843.84;5005021;28;45442;-71
2023/04/21 03:59:01;;;;;;;;;36.25;31.00;;;;;9.12;100.00;100847.25;5004720;28;45311;-71
2023/04/21 04:01:27;;;;;;;;;37.00;32.25;;;;;9.08;100.00;100840.38;5019311;28;45280;-70
2023/04/21 04:03:52;;;;;;;;;45.00;36.50;;;;;9.21;100.00;100850.97;5004932;28;45853;-71
2023/04/21 04:06:17;;;;;;;;;38.25;33.75;;;;;9.15;100.00;100838.81;5004972;28;45444;-71
2023/04/21 04:08:43;;;;;;;;;33.25;32.50;;;;;9.26;100.00;100827.91;5004373;28;50075;-70
2023/04/21 04:11:08;;;;;;;;;31.50;28.75;;;;;9.38;100.00;100832.19;5019693;28;45386;-70
2023/04/21 04:13:33;;;;;;;;;35.50;32.00;;;;;9.44;100.00;100825.34;5005097;28;45343;-70
2023/04/21 04:15:59;;;;;;;;;43.25;34.00;;;;;9.38;100.00;100826.78;5003505;28;45512;-70
2023/04/21 04:18:24;;;;;;;;;34.25;33.00;;;;;9.41;100.00;100830.22;5019663;28;46272;-70
2023/04/21 04:20:50;;;;;;;;;39.50;34.25;;;;;9.37;100.00;100830.47;5004590;28;45248;-71
2023/04/21 04:23:15;;;;;;;;;34.75;34.00;;;;;9.58;100.00;100833.09;5003484;28;45118;-71
2023/04/21 04:25:41;;;;;;;;;36.25;31.50;;;;;9.64;100.00;100834.41;5019694;28;45277;-70
2023/04/21 04:28:06;;;;;;;;;36.75;33.75;;;;;9.61;100.00;100840.09;5004562;28;47224;-72
2023/04/21 04:30:33;;;;;;;;;41.25;34.75;;;;;9.57;100.00;100825.13;5004495;28;45297;-72
2023/04/21 04:32:58;;;;;;;;;46.25;33.75;;;;;9.60;100.00;100835.66;5004499;28;45160;-71
2023/04/21 04:35:23;;;;;;;;;32.50;30.50;;;;;9.64;100.00;100831.69;5004662;28;45204;-72
2023/04/21 04:37:49;;;;;;;;;35.75;32.00;;;;;9.47;100.00;100838.66;5004447;28;46592;-70
2023/04/21 04:40:15;;;;;;;;;39.50;30.25;;;;;9.55;100.00;100843.38;5019095;28;45408;-70
2023/04/21 04:42:42;;;;;;;;;34.75;32.50;;;;;9.52;100.00;100847.22;5019532;28;45321;-71
2023/04/21 04:45:08;;;;;;;;;34.25;34.00;;;;;9.47;100.00;100838.66;5004450;28;45308;-72
2023/04/21 04:47:37;;;;;;;;;37.50;31.50;;;;;9.57;100.00;100839.50;5004027;28;45318;-71
2023/04/21 04:50:03;;;;;;;;;38.50;36.25;;;;;9.65;100.00;100823.41;5002660;28;45335;-70
2023/04/21 04:52:29;;;;;;;;;39.00;33.50;;;;;9.69;100.00;100840.25;5019280;28;45442;-71
2023/04/21 04:54:54;;;;;;;;;42.50;37.25;;;;;9.71;100.00;100843.69;5003254;28;45286;-71
2023/04/21 04:57:19;;;;;;;;;37.25;34.25;;;;;9.59;100.00;100837.53;5003469;28;45695;-71
2023/04/21 04:59:45;;;;;;;;;45.00;35.75;;;;;9.53;100.00;100831.81;5018744;28;45333;-71
2023/04/21 05:02:11;;;;;;;;;31.00;28.50;;;;;9.55;100.00;100821.69;5004102;28;45318;-71
2023/04/21 05:04:36;;;;;;;;;34.00;30.25;;;;;9.48;100.00;100832.22;5019336;28;45537;-70
2023/04/21 05:07:02;;;;;;;;;46.25;39.00;;;;;9.50;100.00;100834.78;5003538;28;45308;-70
2023/04/21 05:09:27;;;;;;;;;41.00;36.50;;;;;9.51;100.00;100831.06;5001682;28;45352;-70
2023/04/21 05:11:52;;;;;;;;;34.00;28.50;;;;;9.68;100.00;100831.25;5001554;28;45495;-71
2023/04/21 05:14:18;;;;;;;;;43.00;37.25;;;;;9.72;100.00;100823.69;5002181;28;45605;-71
2023/04/21 05:16:43;;;;;;;;;38.00;35.00;;;;;9.75;100.00;100818.00;5035126;28;47135;-72
2023/04/21 05:19:08;;;;;;;;;36.50;33.00;;;;;9.81;100.00;100827.41;5003026;28;45409;-71
2023/04/21 05:21:34;;;;;;;;;32.00;29.50;;;;;9.91;100.00;100829.16;5001698;28;45311;-70
2023/04/21 05:23:59;;;;;;;;;40.50;35.25;;;;;9.82;100.00;100818.28;5003358;28;45146;-70
2023/04/21 05:26:26;;;;;;;;;32.00;27.50;;;;;9.75;100.00;100818.84;5000748;28;47885;-71
2023/04/21 05:28:53;;;;;;;;;37.25;34.50;;;;;9.81;100.00;100822.84;5017539;28;45276;-71
2023/04/21 05:31:18;;;;;;;;;39.50;35.25;;;;;9.82;100.00;100811.00;5002398;28;45203;-71
2023/04/21 05:33:43;;;;;;;;;39.00;30.25;;;;;9.89;100.00;100820.28;5001679;28;45555;-70
2023/04/21 05:36:09;;;;;;;;;37.00;33.50;;;;;9.86;100.00;100817.88;5017474;28;53830;-70
2023/04/21 05:38:35;;;;;;;;;35.75;34.75;;;;;9.76;100.00;100825.13;5000754;28;45474;-71
2023/04/21 05:41:01;;;;;;;;;39.75;35.25;;;;;9.77;100.00;100819.56;5002758;28;45380;-71
2023/04/21 05:43:27;;;;;;;;;34.25;34.25;;;;;9.82;100.00;100819.13;5003282;28;45411;-71
2023/04/21 05:45:52;;;;;;;;;38.00;32.25;;;;;9.92;100.00;100820.00;5002420;28;45596;-70
2023/04/21 05:48:18;;;;;;;;;44.00;34.25;;;;;10.11;100.00;100830.00;5002811;28;45506;-70
2023/04/21 05:50:43;;;;;;;;;34.00;28.75;;;;;10.02;100.00;100828.13;5002874;28;45462;-70
2023/04/21 05:53:08;;;;;;;;;38.75;35.00;;;;;10.12;100.00;100829.00;5003233;28;45297;-71
2023/04/21 05:55:35;;;;;;;;;40.50;34.75;;;;;10.15;100.00;100824.13;5002555;28;45335;-70
2023/04/21 05:58:00;;;;;;;;;40.00;33.75;;;;;10.27;100.00;100824.88;5001612;28;45204;-70
2023/04/21 06:00:25;;;;;;;;;35.25;34.25;;;;;10.31;100.00;100815.44;5001410;28;45547;-71
2023/04/21 06:02:51;;;;;;;;;34.00;33.50;;;;;10.25;100.00;100821.44;5003290;28;45395;-71
2023/04/21 06:05:16;;;;;;;;;39.50;29.75;;;;;10.39;100.00;100817.41;5003378;28;46418;-71
2023/04/21 06:07:42;;;;;;;;;36.75;31.75;;;;;10.48;100.00;100828.28;5004729;28;45349;-71
2023/04/21 06:10:07;;;;;;;;;46.50;35.25;;;;;10.47;100.00;100820.28;5021086;28;45297;-71
2023/04/21 06:12:33;;;;;;;;;38.00;33.75;;;;;10.37;100.00;100808.59;5021721;28;45479;-71
2023/04/21 06:14:58;;;;;;;;;40.25;35.00;;;;;10.18;100.00;100824.88;5005652;28;45446;-71
2023/04/21 06:17:24;;;;;;;;;44.25;38.00;;;;;10.39;100.00;100825.56;5004360;28;45154;-73
2023/04/21 06:19:52;;;;;;;;;36.50;30.00;;;;;10.59;100.00;100813.69;5006291;28;45328;-73
2023/04/21 06:22:19;;;;;;;;;40.50;36.75;;;;;10.77;100.00;100820.06;5005185;28;45321;-74
2023/04/21 06:24:45;;;;;;;;;44.75;34.75;;;;;10.82;100.00;100811.44;5005091;28;45344;-74
2023/04/21 06:27:11;;;;;;;;;29.75;27.00;;;;;10.96;100.00;100800.09;5003893;28;45319;-73
2023/04/21 06:29:37;;;;;;;;;36.00;28.50;;;;;11.10;100.00;100806.91;5021376;28;45546;-75
2023/04/21 06:32:02;;;;;;;;;33.75;26.25;;;;;10.69;100.00;100819.06;5004496;28;45559;-74
2023/04/21 06:34:28;;;;;;;;;35.00;30.50;;;;;10.47;100.00;100817.56;5005356;28;45568;-74
2023/04/21 06:36:54;;;;;;;;;31.75;30.25;;;;;10.42;100.00;100811.72;5003473;28;45237;-74
2023/04/21 06:39:19;;;;;;;;;32.50;28.50;;;;;10.59;100.00;100797.38;5003726;28;45368;-74
2023/04/21 06:41:45;;;;;;;;;30.25;26.00;;;;;10.80;100.00;100811.63;5021070;28;45549;-74
2023/04/21 06:44:12;;;;;;;;;32.00;28.25;;;;;10.95;100.00;100822.00;5003345;28;46440;-74
2023/04/21 06:46:41;;;;;;;;;30.25;30.25;;;;;10.97;100.00;100800.94;5019994;28;45418;-74
2023/04/21 06:49:10;;;;;;;;;32.00;29.25;;;;;11.06;100.00;100810.94;5005171;28;45301;-75
2023/04/21 06:51:36;;;;;;;;;40.75;36.50;;;;;10.69;100.00;100811.78;5004335;28;45432;-73
2023/04/21 06:54:02;;;;;;;;;43.00;37.25;;;;;10.53;100.00;100812.38;5005109;28;45500;-75
2023/04/21 06:56:28;;;;;;;;;33.50;31.25;;;;;10.85;100.00;100803.00;5005352;28;45346;-75
2023/04/21 06:58:53;;;;;;;;;39.25;33.75;;;;;11.21;100.00;100806.69;5005604;28;45284;-74
2023/04/21 07:01:18;;;;;;;;;30.25;30.25;;;;;11.41;100.00;100812.88;5004614;28;45477;-75
2023/04/21 07:03:44;;;;;;;;;45.00;37.00;;;;;11.33;100.00;100810.91;5005452;28;46420;-72
2023/04/21 07:06:09;;;;;;;;;34.75;32.75;;;;;11.34;100.00;100801.75;5020318;28;45474;-72
2023/04/21 07:08:35;;;;;;;;;32.00;31.50;;;;;11.58;100.00;100798.47;5005500;28;45434;-73
2023/04/21 07:11:00;;;;;;;;;35.50;31.00;;;;;11.64;100.00;100804.16;5021071;28;45607;-74
2023/04/21 07:13:26;;;;;;;;;33.25;28.75;;;;;11.56;100.00;100793.16;5005012;28;45290;-74
2023/04/21 07:15:51;;;;;;;;;47.25;34.75;;;;;11.57;100.00;100799.47;5020494;28;45726;-73
2023/04/21 07:18:16;;;;;;;;;39.00;33.75;;;;;11.54;100.00;100788.91;5020106;28;45470;-72
2023/04/21 07:20:42;;;;;;;;;42.00;36.00;;;;;11.57;100.00;100800.31;5004275;28;45459;-74
2023/04/21 07:23:07;;;;;;;;;35.00;32.75;;;;;11.76;100.00;100798.53;5005371;28;46303;-74
2023/04/21 07:25:32;;;;;;;;;31.25;29.00;;;;;12.03;100.00;100791.13;5005247;28;45321;-74
2023/04/21 07:27:58;;;;;;;;;38.00;34.00;;;;;12.22;100.00;100784.63;5005244;28;45219;-74
2023/04/21 07:30:23;;;;;;;;;43.25;31.25;;;;;12.48;100.00;100790.13;5020761;28;45254;-73
2023/04/21 07:32:48;;;;;;;;;41.00;34.25;;;;;12.52;100.00;100785.19;5019949;28;47009;-73
2023/04/21 07:35:14;;;;;;;;;44.75;37.00;;;;;12.42;100.00;100791.59;5019885;28;45375;-74
2023/04/21 07:37:40;;;;;;;;;40.75;37.00;;;;;12.69;100.00;100778.84;5020100;28;45475;-73
2023/04/21 07:40:07;;;;;;;;;40.25;33.25;;;;;12.62;100.00;100780.50;5003724;28;45539;-74
2023/04/21 07:42:33;;;;;;;;;29.50;28.75;;;;;12.67;100.00;100756.34;5019747;28;47340;-75
2023/04/21 07:45:00;;;;;;;;;33.75;28.75;;;;;12.88;100.00;100778.59;5003228;28;45416;-74
2023/04/21 07:47:25;;;;;;;;;44.25;33.75;;;;;12.84;100.00;100769.91;5003221;28;45344;-75
2023/04/21 07:49:51;;;;;;;;;40.50;35.25;;;;;12.89;100.00;100777.59;5005327;28;45489;-75
2023/04/21 07:52:16;;;;;;;;;41.00;35.00;;;;;13.01;100.00;100781.72;5002762;28;47179;-72
2023/04/21 07:54:42;;;;;;;;;32.75;28.00;;;;;13.05;100.00;100785.00;5019431;28;45764;-72
2023/04/21 07:57:08;;;;;;;;;30.00;30.00;;;;;13.02;100.00;100788.88;5004431;28;45296;-74
2023/04/21 07:59:33;;;;;;;;;33.75;30.50;;;;;12.83;100.00;100783.69;5005094;28;45574;-74
2023/04/21 08:01:59;;;;;;;;;28.00;26.75;;;;;12.66;100.00;100766.38;5019140;28;46861;-74
2023/04/21 08:04:24;;;;;;;;;32.00;28.75;;;;;12.72;100.00;100770.31;5004347;28;45293;-74
2023/04/21 08:06:49;;;;;;;;;29.00;27.25;;;;;13.31;100.00;100776.75;5019639;28;45394;-74
2023/04/21 08:09:15;;;;;;;;;27.50;27.50;;;;;13.87;100.00;100767.88;5004997;28;45487;-75
2023/04/21 08:11:40;;;;;;;;;32.50;25.50;;;;;14.28;100.00;100757.78;5004258;28;45795;-73
2023/04/21 08:14:08;;;;;;;;;25.00;22.50;;;;;14.46;100.00;100754.91;5019710;28;45356;-73
2023/04/21 08:16:34;;;;;;;;;26.75;24.50;;;;;14.66;100.00;100776.22;5019504;28;45280;-73
2023/04/21 08:18:59;;;;;;;;;22.33;21.00;;;;;14.55;100.00;100762.91;5004671;28;45304;-73
2023/04/21 08:21:24;;;;;;;;;19.00;17.33;;;;;14.69;100.00;100769.53;5004406;28;45289;-73
2023/04/21 08:23:50;;;;;;;;;19.67;18.67;;;;;14.73;100.00;100766.28;5004603;28;45209;-74
2023/04/21 08:26:15;;;;;;;;;18.00;16.00;;;;;14.91;100.00;100762.47;5019912;28;45305;-74
2023/04/21 08:28:41;;;;;;;;;20.67;20.00;;;;;15.26;100.00;100764.75;5018982;28;45684;-74
2023/04/21 08:31:06;;;;;;;;;26.00;21.25;;;;;15.34;100.00;100764.66;5003852;28;45370;-74
2023/04/21 08:33:32;;;;;;;;;23.75;21.50;;;;;14.71;100.00;100773.81;5004250;28;45321;-74
2023/04/21 08:35:57;;;;;;;;;24.00;22.00;;;;;14.51;100.00;100758.81;5004234;28;45162;-73
2023/04/21 08:38:22;;;;;;;;;26.00;18.00;;;;;14.50;100.00;100768.03;5004173;28;45214;-74
2023/04/21 08:40:48;;;;;;;;;28.25;25.00;;;;;14.36;100.00;100757.78;5003355;28;46652;-73
2023/04/21 08:43:14;;;;;;;;;37.25;32.00;;;;;14.60;100.00;100770.59;5003551;28;45766;-73
2023/04/21 08:45:40;;;;;;;;;27.50;26.75;;;;;14.58;100.00;100768.03;5002451;28;45353;-74
2023/04/21 08:48:06;;;;;;;;;29.25;24.75;;;;;14.64;100.00;100766.47;5004614;28;45483;-74
2023/04/21 08:50:33;;;;;;;;;34.25;27.00;;;;;15.09;100.00;100765.81;5018490;28;46917;-74
2023/04/21 08:52:58;;;;;;;;;25.75;24.00;;;;;15.52;100.00;100767.16;5003524;28;45505;-74
2023/04/21 08:55:31;;;;;;;;;33.00;31.00;;;;;15.67;100.00;100764.53;5003580;28;45657;-74
2023/04/21 08:57:57;;;;;;;;;32.00;28.75;;;;;15.46;100.00;100757.78;5019205;28;45498;-74
2023/04/21 09:00:22;;;;;;;;;20.25;20.25;;;;;16.02;100.00;100757.59;5003165;28;45360;-73
2023/04/21 09:02:53;;;;;;;;;28.25;25.25;;;;;16.21;100.00;100762.59;5018916;28;45363;-74
2023/04/21 09:05:24;;;;;;;;;33.25;31.75;;;;;16.29;100.00;100754.31;5018890;28;45269;-74
2023/04/21 09:07:50;;;;;;;;;31.00;25.75;;;;;16.44;100.00;100751.59;5002532;28;45389;-74
2023/04/21 09:10:23;;;;;;;;;25.50;24.25;;;;;16.60;100.00;100762.38;5003556;28;46197;-75
2023/04/21 09:12:53;;;;;;;;;27.00;25.00;;;;;16.99;100.00;100765.75;5002361;28;45360;-73
2023/04/21 09:15:20;;;;;;;;;28.75;25.00;;;;;17.24;100.00;100752.56;5002146;28;45306;-74
2023/04/21 09:17:46;;;;;;;;;30.75;26.25;;;;;17.43;100.00;100743.72;5003739;28;45399;-73
2023/04/21 09:20:20;;;;;;;;;30.75;29.25;;;;;16.55;100.00;100751.13;5018540;28;45356;-75
2023/04/21 09:22:48;;;;;;;;;24.50;24.50;;;;;16.59;100.00;100761.53;5003290;28;45382;-75
2023/04/21 09:25:20;;;;;;;;;31.50;29.00;;;;;16.53;100.00;100764.16;5018381;28;45396;-73
2023/04/21 09:27:46;;;;;;;;;30.50;25.25;;;;;16.84;100.00;100764.91;5002084;28;45331;-74
2023/04/21 09:30:12;;;;;;;;;37.25;32.75;;;;;17.28;100.00;100753.03;5001933;28;47020;-74
2023/04/21 09:32:39;;;;;;;;;37.50;32.50;;;;;17.23;100.00;100774.75;5018061;28;45343;-73
2023/04/21 09:35:08;;;;;;;;;33.50;26.25;;;;;16.59;100.00;100750.53;5003449;28;45381;-74
2023/04/21 09:37:34;;;;;;;;;29.75;28.25;;;;;16.35;100.00;100761.78;5002031;28;45274;-74
2023/04/21 09:40:00;;;;;;;;;35.25;31.75;;;;;16.39;100.00;100751.28;4999131;28;47005;-74
2023/04/21 09:42:30;;;;;;;;;33.50;30.75;;;;;16.46;100.00;100758.56;5013426;28;45486;-74
2023/04/21 09:44:56;;;;;;;;;28.25;28.25;;;;;16.49;100.00;100736.28;5018227;28;45384;-74
2023/04/21 09:47:22;;;;;;;;;30.75;27.25;;;;;16.57;100.00;100751.78;5003128;28;45291;-73
2023/04/21 09:49:51;;;;;;;;;29.25;27.50;;;;;16.46;100.00;100761.31;5017948;28;46304;-74
2023/04/21 09:52:19;;;;;;;;;26.00;26.00;;;;;16.11;100.00;100754.63;5002680;28;45330;-73
2023/04/21 09:54:50;;;;;;;;;29.50;27.75;;;;;15.92;100.00;100750.50;5014431;28;45273;-74
2023/04/21 09:57:23;;;;;;;;;28.75;26.50;;;;;15.64;100.00;100741.09;5002570;28;45513;-74
2023/04/21 09:59:55;;;;;;;;;27.50;26.75;;;;;15.73;100.00;100744.63;5002311;28;46381;-74
2023/04/21 10:02:25;;;;;;;;;27.25;25.50;;;;;15.95;100.00;100741.03;5001217;28;45250;-74
2023/04/21 10:04:51;;;;;;;;;26.75;25.25;;;;;15.73;100.00;100739.16;5002577;28;45494;-74
2023/04/21 10:07:16;;;;;;;;;28.50;27.25;;;;;15.74;100.00;100749.06;5003506;28;45492;-74
2023/04/21 10:09:49;;;;;;;;;27.00;26.25;;;;;15.60;100.00;100747.13;5002238;28;46665;-73
2023/04/21 10:12:16;;;;;;;;;29.50;24.25;;;;;15.36;100.00;100735.25;5002881;28;45287;-73
2023/04/21 10:14:43;;;;;;;;;26.00;21.00;;;;;15.63;100.00;100744.03;5002703;28;45563;-73
2023/04/21 10:17:10;;;;;;;;;35.75;32.50;;;;;16.11;100.00;100734.56;5024281;28;45295;-72
2023/04/21 10:19:46;;;;;;;;;29.50;22.25;;;;;15.39;100.00;100723.94;5004897;28;45377;-72
2023/04/21 10:22:11;;;;;;;;;25.00;22.25;;;;;15.92;100.00;100722.25;5004586;28;45266;-74
2023/04/21 10:24:43;;;;;;;;;34.00;31.50;;;;;16.29;100.00;100733.19;5022139;28;46413;-72
2023/04/21 10:27:10;;;;;;;;;26.50;22.25;;;;;16.49;100.00;100716.22;5005529;28;45509;-73
2023/04/21 10:29:36;;;;;;;;;25.50;24.00;;;;;16.83;100.00;100724.78;5002077;28;45390;-74
2023/04/21 10:32:03;;;;;;;;;25.25;23.50;;;;;16.92;100.00;100718.16;5002346;28;45428;-76
2023/04/21 10:34:38;;;;;;;;;31.00;27.67;;;;;16.87;100.00;100725.25;5017649;28;45415;-75
2023/04/21 10:37:04;;;;;;;;;26.00;24.00;;;;;17.04;100.00;100721.25;5017976;28;45352;-75
2023/04/21 10:39:32;;;;;;;;;22.00;20.33;;;;;17.25;100.00;100709.47;5002196;28;46524;-75
2023/04/21 10:42:24;;;;;;;;;19.25;19.25;;;;;17.16;100.00;100708.75;5017436;28;45730;-75
2023/04/21 10:45:01;;;;;;;;;24.25;22.75;;;;;17.23;100.00;100714.34;5017259;28;45499;-75
2023/04/21 10:47:27;;;;;;;;;26.50;23.00;;;;;16.57;100.00;100713.41;5001471;28;45319;-75
2023/04/21 10:49:55;;;;;;;;;21.50;21.50;;;;;16.67;100.00;100701.13;5001080;28;47274;-75
2023/04/21 10:52:20;;;;;;;;;29.00;23.50;;;;;16.61;100.00;100704.63;5003251;28;45291;-75
2023/04/21 10:54:46;;;;;;;;;22.67;22.67;;;;;17.27;100.00;100704.66;5004768;28;45328;-75
2023/04/21 10:57:16;;;;;;;;;19.33;19.00;;;;;18.17;100.00;100700.34;5006117;28;45415;-75
2023/04/21 10:59:42;;;;;;;;;26.50;22.25;;;;;18.82;100.00;100682.59;5005569;28;46110;-75